createdAt,value
2024-04-10T00:07:03.353Z,59
2024-04-10T00:27:03.107Z,51.3
2024-04-10T00:47:02.867Z,41
2024-04-10T01:07:02.617Z,28.2
2024-04-10T01:27:02.388Z,20.6
2024-04-10T01:47:02.131Z,10.3
2024-04-10T02:07:01.894Z,652.9
2024-04-10T02:27:01.652Z,650.3
2024-04-10T02:47:01.418Z,640.1
2024-04-10T03:07:01.164Z,629.8
2024-04-10T03:27:00.938Z,617
2024-04-10T03:47:00.695Z,614.5
2024-04-10T04:07:00.442Z,611.9
2024-04-10T04:27:00.207Z,650.3
2024-04-10T04:46:59.949Z,402
2024-04-10T05:06:59.716Z,335.4
2024-04-10T05:26:59.468Z,394.3
2024-04-10T05:46:59.234Z,455.7
2024-04-10T06:06:58.997Z,489
2024-04-10T06:26:58.744Z,501.8
2024-04-10T06:46:58.510Z,527.4
2024-04-10T07:06:58.260Z,542.8
2024-04-10T07:26:58.016Z,588.9
2024-04-10T07:46:57.778Z,611.9
2024-04-10T08:06:57.532Z,634.9
2024-04-10T08:26:57.301Z,634.9
2024-04-10T08:46:57.045Z,632.4
2024-04-10T09:06:56.820Z,642.6
2024-04-10T09:26:56.575Z,20.6
2024-04-10T09:46:56.334Z,71.8
2024-04-10T10:06:56.073Z,87.1
2024-04-10T10:26:55.851Z,92.2
2024-04-10T10:46:55.608Z,107.6
2024-04-10T11:06:55.364Z,107.6
2024-04-10T11:26:55.105Z,238.2
2024-04-10T11:46:54.871Z,286.8
2024-04-10T12:06:54.632Z,274
2024-04-10T12:26:54.397Z,389.2
2024-04-10T12:46:54.151Z,489
2024-04-10T13:06:53.912Z,547.9
2024-04-10T13:26:53.662Z,545.4
2024-04-10T13:46:53.427Z,519.8
2024-04-10T14:06:53.178Z,524.9
2024-04-10T14:26:52.924Z,576.1
2024-04-10T14:46:52.690Z,627.3
2024-04-10T15:06:52.453Z,645.2
2024-04-10T15:26:52.213Z,611.9
2024-04-10T15:46:51.965Z,642.6
2024-04-10T16:06:51.722Z,609.4
2024-04-10T16:26:51.463Z,565.8
2024-04-10T16:46:51.221Z,496.7
2024-04-10T17:06:50.979Z,427.6
2024-04-10T17:26:50.751Z,355.9
2024-04-10T17:46:50.504Z,302.1
2024-04-10T18:06:50.248Z,250.9
2024-04-10T18:26:50.011Z,217.7
2024-04-10T18:46:49.766Z,181.8
2024-04-10T19:06:49.536Z,181.8
2024-04-10T19:26:49.278Z,151.1
2024-04-10T19:46:49.044Z,133.2
2024-04-10T20:06:48.800Z,117.8
2024-04-10T20:26:48.566Z,99.9
2024-04-10T21:06:48.080Z,79.4
2024-04-10T21:26:47.822Z,51.3
2024-04-10T21:46:47.589Z,64.1
2024-04-10T22:06:47.343Z,51.3
2024-04-10T22:26:47.118Z,48.7
2024-04-10T22:46:46.867Z,38.5
2024-04-10T23:06:46.614Z,28.2
2024-04-10T23:26:46.373Z,12.9
2024-04-10T23:46:46.127Z,18
